sensor_id;sensor_type;location;lat;lon;timestamp;pressure;altitude;pressure_sealevel;temperature;humidity
66742;BME280;53654;54.152;19.432;2022-11-15T00:00:27;101856.07;;;8.59;76.76
66742;BME280;53654;54.152;19.432;2022-11-15T00:03:20;101853.14;;;8.61;76.52
66742;BME280;53654;54.152;19.432;2022-11-15T00:06:08;101850.11;;;8.57;76.57
66742;BME280;53654;54.152;19.432;2022-11-15T00:08:57;101848.39;;;8.48;76.72
66742;BME280;53654;54.152;19.432;2022-11-15T00:11:44;101845.36;;;8.44;77.07
66742;BME280;53654;54.152;19.432;2022-11-15T00:14:31;101840.48;;;8.43;77.23
66742;BME280;53654;54.152;19.432;2022-11-15T00:17:17;101839.77;;;8.43;77.33
66742;BME280;53654;54.152;19.432;2022-11-15T00:20:04;101835.29;;;8.45;77.48
66742;BME280;53654;54.152;19.432;2022-11-15T00:22:51;101834.39;;;8.43;77.44
66742;BME280;53654;54.152;19.432;2022-11-15T00:25:37;101829.86;;;8.43;77.45
66742;BME280;53654;54.152;19.432;2022-11-15T00:28:25;101831.05;;;8.41;77.47
66742;BME280;53654;54.152;19.432;2022-11-15T00:31:13;101828.38;;;8.38;77.44
66742;BME280;53654;54.152;19.432;2022-11-15T00:34:00;101822.80;;;8.37;77.50
66742;BME280;53654;54.152;19.432;2022-11-15T00:36:47;101822.29;;;8.37;77.46
66742;BME280;53654;54.152;19.432;2022-11-15T00:39:33;101821.41;;;8.37;77.62
66742;BME280;53654;54.152;19.432;2022-11-15T00:42:20;101819.89;;;8.39;77.41
66742;BME280;53654;54.152;19.432;2022-11-15T00:45:07;101816.98;;;8.42;77.10
66742;BME280;53654;54.152;19.432;2022-11-15T00:47:54;101814.89;;;8.42;76.94
66742;BME280;53654;54.152;19.432;2022-11-15T00:50:41;101813.52;;;8.43;76.93
66742;BME280;53654;54.152;19.432;2022-11-15T00:53:27;101809.33;;;8.41;76.84
66742;BME280;53654;54.152;19.432;2022-11-15T00:56:14;101807.13;;;8.35;76.95
66742;BME280;53654;54.152;19.432;2022-11-15T00:59:01;101804.93;;;8.31;77.02
66742;BME280;53654;54.152;19.432;2022-11-15T01:01:48;101796.71;;;8.28;77.09
66742;BME280;53654;54.152;19.432;2022-11-15T01:04:35;101791.86;;;8.20;77.18
66742;BME280;53654;54.152;19.432;2022-11-15T01:07:22;101788.77;;;8.12;77.45
66742;BME280;53654;54.152;19.432;2022-11-15T01:10:09;101789.73;;;8.07;77.67
66742;BME280;53654;54.152;19.432;2022-11-15T01:12:55;101784.85;;;7.97;77.91
66742;BME280;53654;54.152;19.432;2022-11-15T01:15:42;101781.45;;;7.91;78.19
66742;BME280;53654;54.152;19.432;2022-11-15T01:18:28;101778.55;;;7.85;78.36
66742;BME280;53654;54.152;19.432;2022-11-15T01:21:17;101780.05;;;7.82;78.73
66742;BME280;53654;54.152;19.432;2022-11-15T01:24:05;101774.52;;;7.83;78.82
66742;BME280;53654;54.152;19.432;2022-11-15T01:26:52;101770.22;;;7.86;78.91
66742;BME280;53654;54.152;19.432;2022-11-15T01:29:38;101768.38;;;7.89;78.99
66742;BME280;53654;54.152;19.432;2022-11-15T01:32:25;101767.25;;;7.94;79.04
66742;BME280;53654;54.152;19.432;2022-11-15T01:35:12;101764.77;;;8.01;78.81
66742;BME280;53654;54.152;19.432;2022-11-15T01:37:59;101759.81;;;8.05;78.61
66742;BME280;53654;54.152;19.432;2022-11-15T01:40:47;101756.34;;;8.06;78.48
66742;BME280;53654;54.152;19.432;2022-11-15T01:43:36;101748.70;;;8.06;78.43
66742;BME280;53654;54.152;19.432;2022-11-15T01:46:34;101741.35;;;8.03;78.44
66742;BME280;53654;54.152;19.432;2022-11-15T01:49:23;101745.36;;;8.04;78.52
66742;BME280;53654;54.152;19.432;2022-11-15T01:52:14;101735.66;;;8.05;78.42
66742;BME280;53654;54.152;19.432;2022-11-15T01:55:09;101727.90;;;8.09;78.55
66742;BME280;53654;54.152;19.432;2022-11-15T01:57:59;101724.99;;;8.12;78.36
66742;BME280;53654;54.152;19.432;2022-11-15T02:00:48;101721.15;;;8.11;78.17
66742;BME280;53654;54.152;19.432;2022-11-15T02:04:28;101722.17;;;8.10;78.21
66742;BME280;53654;54.152;19.432;2022-11-15T02:06:49;101719.34;;;8.07;78.34
66742;BME280;53654;54.152;19.432;2022-11-15T02:09:37;101716.23;;;8.08;78.48
66742;BME280;53654;54.152;19.432;2022-11-15T02:12:25;101713.81;;;8.09;78.54
66742;BME280;53654;54.152;19.432;2022-11-15T02:15:12;101708.63;;;8.10;78.40
66742;BME280;53654;54.152;19.432;2022-11-15T02:18:26;101706.70;;;8.10;78.49
66742;BME280;53654;54.152;19.432;2022-11-15T02:27:14;101696.59;;;8.18;78.18
66742;BME280;53654;54.152;19.432;2022-11-15T02:42:21;101680.45;;;7.88;78.70
66742;BME280;53654;54.152;19.432;2022-11-15T02:45:36;101674.91;;;7.79;79.00
66742;BME280;53654;54.152;19.432;2022-11-15T02:48:26;101672.06;;;7.75;79.16
66742;BME280;53654;54.152;19.432;2022-11-15T02:51:13;101667.13;;;7.72;79.44
66742;BME280;53654;54.152;19.432;2022-11-15T02:54:00;101657.88;;;7.69;79.50
66742;BME280;53654;54.152;19.432;2022-11-15T02:56:47;101654.70;;;7.66;79.61
66742;BME280;53654;54.152;19.432;2022-11-15T03:06:20;101652.56;;;7.54;80.12
66742;BME280;53654;54.152;19.432;2022-11-15T03:09:08;101646.20;;;7.48;80.43
66742;BME280;53654;54.152;19.432;2022-11-15T03:12:00;101638.08;;;7.50;80.58
66742;BME280;53654;54.152;19.432;2022-11-15T03:17:51;101629.89;;;7.49;80.56
66742;BME280;53654;54.152;19.432;2022-11-15T03:20:39;101633.20;;;7.49;80.67
66742;BME280;53654;54.152;19.432;2022-11-15T03:23:30;101630.19;;;7.55;80.89
66742;BME280;53654;54.152;19.432;2022-11-15T03:26:20;101630.64;;;7.61;80.67
66742;BME280;53654;54.152;19.432;2022-11-15T03:29:16;101626.70;;;7.64;80.59
66742;BME280;53654;54.152;19.432;2022-11-15T03:32:09;101630.41;;;7.68;80.44
66742;BME280;53654;54.152;19.432;2022-11-15T03:35:05;101626.22;;;7.67;80.26
66742;BME280;53654;54.152;19.432;2022-11-15T03:38:12;101624.04;;;7.61;80.40
66742;BME280;53654;54.152;19.432;2022-11-15T03:41:04;101619.78;;;7.56;80.37
66742;BME280;53654;54.152;19.432;2022-11-15T03:44:02;101621.42;;;7.51;80.48
66742;BME280;53654;54.152;19.432;2022-11-15T03:47:00;101618.91;;;7.46;80.75
66742;BME280;53654;54.152;19.432;2022-11-15T03:49:57;101619.02;;;7.42;80.87
66742;BME280;53654;54.152;19.432;2022-11-15T03:52:47;101613.79;;;7.40;81.05
66742;BME280;53654;54.152;19.432;2022-11-15T03:55:34;101614.67;;;7.42;81.19
66742;BME280;53654;54.152;19.432;2022-11-15T03:58:21;101610.56;;;7.45;81.11
66742;BME280;53654;54.152;19.432;2022-11-15T04:01:08;101614.61;;;7.48;81.11
66742;BME280;53654;54.152;19.432;2022-11-15T04:03:55;101609.04;;;7.47;81.06
66742;BME280;53654;54.152;19.432;2022-11-15T04:06:42;101610.03;;;7.44;81.11
66742;BME280;53654;54.152;19.432;2022-11-15T04:09:28;101604.25;;;7.41;81.12
66742;BME280;53654;54.152;19.432;2022-11-15T04:12:16;101606.63;;;7.38;81.32
66742;BME280;53654;54.152;19.432;2022-11-15T04:15:19;101597.58;;;7.37;81.49
66742;BME280;53654;54.152;19.432;2022-11-15T04:18:05;101599.29;;;7.36;81.62
66742;BME280;53654;54.152;19.432;2022-11-15T04:20:52;101586.04;;;7.33;81.67
66742;BME280;53654;54.152;19.432;2022-11-15T04:23:58;101591.46;;;7.35;81.82
66742;BME280;53654;54.152;19.432;2022-11-15T04:26:51;101592.03;;;7.38;81.85
66742;BME280;53654;54.152;19.432;2022-11-15T04:29:38;101587.11;;;7.44;81.79
66742;BME280;53654;54.152;19.432;2022-11-15T04:32:25;101592.63;;;7.52;81.53
66742;BME280;53654;54.152;19.432;2022-11-15T04:35:12;101589.42;;;7.58;81.50
66742;BME280;53654;54.152;19.432;2022-11-15T04:38:00;101594.73;;;7.62;81.27
66742;BME280;53654;54.152;19.432;2022-11-15T04:40:46;101590.84;;;7.69;80.95
66742;BME280;53654;54.152;19.432;2022-11-15T04:43:33;101593.59;;;7.68;80.72
66742;BME280;53654;54.152;19.432;2022-11-15T04:46:21;101592.73;;;7.68;80.80
66742;BME280;53654;54.152;19.432;2022-11-15T04:49:08;101591.02;;;7.70;80.96
66742;BME280;53654;54.152;19.432;2022-11-15T04:51:54;101594.89;;;7.72;80.90
66742;BME280;53654;54.152;19.432;2022-11-15T04:54:41;101599.23;;;7.71;80.70
66742;BME280;53654;54.152;19.432;2022-11-15T04:57:29;101601.11;;;7.71;80.85
66742;BME280;53654;54.152;19.432;2022-11-15T05:00:16;101605.48;;;7.72;80.80
66742;BME280;53654;54.152;19.432;2022-11-15T05:03:03;101599.73;;;7.71;80.74
66742;BME280;53654;54.152;19.432;2022-11-15T05:06:08;101600.23;;;7.70;80.71
66742;BME280;53654;54.152;19.432;2022-11-15T05:08:56;101594.98;;;7.67;80.78
66742;BME280;53654;54.152;19.432;2022-11-15T05:11:43;101589.43;;;7.68;80.88
66742;BME280;53654;54.152;19.432;2022-11-15T05:14:31;101588.97;;;7.71;80.86
66742;BME280;53654;54.152;19.432;2022-11-15T05:17:17;101589.38;;;7.75;80.79
66742;BME280;53654;54.152;19.432;2022-11-15T05:20:04;101586.98;;;7.77;80.84
66742;BME280;53654;54.152;19.432;2022-11-15T05:22:52;101586.81;;;7.78;80.76
66742;BME280;53654;54.152;19.432;2022-11-15T05:25:39;101580.42;;;7.80;80.89
66742;BME280;53654;54.152;19.432;2022-11-15T05:28:26;101573.00;;;7.83;80.93
66742;BME280;53654;54.152;19.432;2022-11-15T05:31:15;101575.30;;;7.85;80.83
66742;BME280;53654;54.152;19.432;2022-11-15T05:34:04;101577.56;;;7.86;80.69
66742;BME280;53654;54.152;19.432;2022-11-15T05:36:51;101576.02;;;7.87;80.52
66742;BME280;53654;54.152;19.432;2022-11-15T05:39:38;101581.73;;;7.87;80.39
66742;BME280;53654;54.152;19.432;2022-11-15T05:42:26;101578.25;;;7.85;80.38
66742;BME280;53654;54.152;19.432;2022-11-15T05:45:14;101578.54;;;7.82;80.57
66742;BME280;53654;54.152;19.432;2022-11-15T05:48:06;101575.57;;;7.80;80.73
66742;BME280;53654;54.152;19.432;2022-11-15T05:50:54;101573.45;;;7.79;80.86
66742;BME280;53654;54.152;19.432;2022-11-15T05:53:42;101572.80;;;7.81;80.90
66742;BME280;53654;54.152;19.432;2022-11-15T05:56:29;101570.27;;;7.86;80.95
66742;BME280;53654;54.152;19.432;2022-11-15T05:59:16;101569.77;;;7.87;80.75
66742;BME280;53654;54.152;19.432;2022-11-15T06:02:03;101571.67;;;7.87;80.62
66742;BME280;53654;54.152;19.432;2022-11-15T06:04:50;101575.14;;;7.87;80.56
66742;BME280;53654;54.152;19.432;2022-11-15T06:07:37;101576.16;;;7.86;80.67
66742;BME280;53654;54.152;19.432;2022-11-15T06:10:23;101580.33;;;7.85;80.82
66742;BME280;53654;54.152;19.432;2022-11-15T06:13:10;101575.27;;;7.83;81.02
66742;BME280;53654;54.152;19.432;2022-11-15T06:15:57;101578.90;;;7.82;81.13
66742;BME280;53654;54.152;19.432;2022-11-15T06:18:43;101578.89;;;7.82;81.14
66742;BME280;53654;54.152;19.432;2022-11-15T06:21:30;101576.43;;;7.81;81.16
66742;BME280;53654;54.152;19.432;2022-11-15T06:24:17;101577.50;;;7.82;81.22
66742;BME280;53654;54.152;19.432;2022-11-15T06:27:04;101575.94;;;7.82;81.50
66742;BME280;53654;54.152;19.432;2022-11-15T06:29:51;101579.95;;;7.84;81.46
66742;BME280;53654;54.152;19.432;2022-11-15T06:32:37;101580.33;;;7.85;81.51
66742;BME280;53654;54.152;19.432;2022-11-15T06:35:24;101585.71;;;7.85;81.52
66742;BME280;53654;54.152;19.432;2022-11-15T06:38:11;101591.95;;;7.84;81.42
66742;BME280;53654;54.152;19.432;2022-11-15T06:41:02;101595.02;;;7.81;81.41
66742;BME280;53654;54.152;19.432;2022-11-15T06:43:49;101595.47;;;7.76;81.27
66742;BME280;53654;54.152;19.432;2022-11-15T06:46:37;101593.55;;;7.76;81.55
66742;BME280;53654;54.152;19.432;2022-11-15T06:49:23;101593.91;;;7.76;81.49
66742;BME280;53654;54.152;19.432;2022-11-15T06:52:09;101597.75;;;7.77;81.37
66742;BME280;53654;54.152;19.432;2022-11-15T06:54:56;101593.56;;;7.76;81.34
66742;BME280;53654;54.152;19.432;2022-11-15T06:57:50;101599.95;;;7.74;81.33
66742;BME280;53654;54.152;19.432;2022-11-15T07:00:37;101595.63;;;7.75;81.39
66742;BME280;53654;54.152;19.432;2022-11-15T07:03:24;101594.80;;;7.77;81.35
66742;BME280;53654;54.152;19.432;2022-11-15T07:06:11;101594.48;;;7.79;81.24
66742;BME280;53654;54.152;19.432;2022-11-15T07:08:58;101591.15;;;7.77;81.25
66742;BME280;53654;54.152;19.432;2022-11-15T07:11:45;101595.44;;;7.74;81.42
66742;BME280;53654;54.152;19.432;2022-11-15T07:14:31;101594.19;;;7.72;81.72
66742;BME280;53654;54.152;19.432;2022-11-15T07:17:18;101592.83;;;7.73;82.00
66742;BME280;53654;54.152;19.432;2022-11-15T07:20:05;101593.33;;;7.72;81.83
66742;BME280;53654;54.152;19.432;2022-11-15T07:22:59;101591.73;;;7.71;82.10
66742;BME280;53654;54.152;19.432;2022-11-15T07:25:47;101592.77;;;7.70;82.31
66742;BME280;53654;54.152;19.432;2022-11-15T07:28:35;101597.30;;;7.71;82.39
66742;BME280;53654;54.152;19.432;2022-11-15T07:31:22;101588.30;;;7.73;82.39
66742;BME280;53654;54.152;19.432;2022-11-15T07:34:09;101590.73;;;7.73;82.24
66742;BME280;53654;54.152;19.432;2022-11-15T07:36:56;101593.33;;;7.72;82.16
66742;BME280;53654;54.152;19.432;2022-11-15T07:39:43;101592.62;;;7.72;81.95
66742;BME280;53654;54.152;19.432;2022-11-15T07:42:33;101594.81;;;7.67;81.92
66742;BME280;53654;54.152;19.432;2022-11-15T07:45:43;101589.02;;;7.64;82.08
66742;BME280;53654;54.152;19.432;2022-11-15T07:48:30;101587.92;;;7.61;82.08
66742;BME280;53654;54.152;19.432;2022-11-15T07:51:28;101592.37;;;7.57;82.30
66742;BME280;53654;54.152;19.432;2022-11-15T07:54:15;101591.87;;;7.58;82.77
66742;BME280;53654;54.152;19.432;2022-11-15T07:57:02;101592.24;;;7.60;83.01
66742;BME280;53654;54.152;19.432;2022-11-15T07:59:52;101590.55;;;7.63;83.11
66742;BME280;53654;54.152;19.432;2022-11-15T08:02:40;101591.98;;;7.66;83.01
66742;BME280;53654;54.152;19.432;2022-11-15T08:05:27;101588.17;;;7.65;82.84
66742;BME280;53654;54.152;19.432;2022-11-15T08:08:14;101588.52;;;7.65;82.69
66742;BME280;53654;54.152;19.432;2022-11-15T08:11:00;101585.24;;;7.67;82.73
66742;BME280;53654;54.152;19.432;2022-11-15T08:13:47;101578.14;;;7.67;82.58
66742;BME280;53654;54.152;19.432;2022-11-15T08:16:34;101575.58;;;7.70;82.65
66742;BME280;53654;54.152;19.432;2022-11-15T08:19:20;101574.90;;;7.71;82.43
66742;BME280;53654;54.152;19.432;2022-11-15T08:22:07;101573.58;;;7.75;82.10
66742;BME280;53654;54.152;19.432;2022-11-15T08:24:54;101575.86;;;7.77;82.05
66742;BME280;53654;54.152;19.432;2022-11-15T08:27:41;101571.19;;;7.78;81.80
66742;BME280;53654;54.152;19.432;2022-11-15T08:30:28;101570.48;;;7.77;81.54
66742;BME280;53654;54.152;19.432;2022-11-15T08:33:14;101569.92;;;7.74;81.65
66742;BME280;53654;54.152;19.432;2022-11-15T08:36:01;101567.83;;;7.74;81.78
66742;BME280;53654;54.152;19.432;2022-11-15T08:38:48;101569.06;;;7.75;81.59
66742;BME280;53654;54.152;19.432;2022-11-15T08:41:37;101567.49;;;7.75;81.60
66742;BME280;53654;54.152;19.432;2022-11-15T08:44:24;101572.53;;;7.75;81.54
66742;BME280;53654;54.152;19.432;2022-11-15T08:47:11;101573.23;;;7.75;81.66
66742;BME280;53654;54.152;19.432;2022-11-15T08:49:58;101570.83;;;7.78;81.68
66742;BME280;53654;54.152;19.432;2022-11-15T08:52:45;101567.20;;;7.79;81.60
66742;BME280;53654;54.152;19.432;2022-11-15T08:55:32;101565.32;;;7.80;81.55
66742;BME280;53654;54.152;19.432;2022-11-15T08:58:19;101561.87;;;7.82;81.60
66742;BME280;53654;54.152;19.432;2022-11-15T09:01:06;101568.67;;;7.84;81.59
66742;BME280;53654;54.152;19.432;2022-11-15T09:04:04;101565.89;;;7.84;81.38
66742;BME280;53654;54.152;19.432;2022-11-15T09:06:51;101570.58;;;7.83;81.51
66742;BME280;53654;54.152;19.432;2022-11-15T09:09:38;101568.14;;;7.83;81.83
66742;BME280;53654;54.152;19.432;2022-11-15T09:12:25;101566.58;;;7.83;81.88
66742;BME280;53654;54.152;19.432;2022-11-15T09:15:12;101570.24;;;7.84;81.77
66742;BME280;53654;54.152;19.432;2022-11-15T09:17:59;101568.88;;;7.85;81.62
66742;BME280;53654;54.152;19.432;2022-11-15T09:20:45;101568.02;;;7.87;81.61
66742;BME280;53654;54.152;19.432;2022-11-15T09:23:32;101567.04;;;7.90;81.54
66742;BME280;53654;54.152;19.432;2022-11-15T09:26:19;101566.54;;;7.92;81.24
66742;BME280;53654;54.152;19.432;2022-11-15T09:29:06;101562.54;;;7.92;81.32
66742;BME280;53654;54.152;19.432;2022-11-15T09:31:53;101560.13;;;7.92;81.37
66742;BME280;53654;54.152;19.432;2022-11-15T09:34:39;101561.66;;;7.91;81.27
66742;BME280;53654;54.152;19.432;2022-11-15T09:37:26;101554.86;;;7.89;81.26
66742;BME280;53654;54.152;19.432;2022-11-15T09:40:14;101552.24;;;7.89;81.13
66742;BME280;53654;54.152;19.432;2022-11-15T09:46:17;101552.35;;;7.84;80.79
66742;BME280;53654;54.152;19.432;2022-11-15T09:49:09;101555.26;;;7.81;81.06
66742;BME280;53654;54.152;19.432;2022-11-15T09:52:16;101553.14;;;7.79;81.16
66742;BME280;53654;54.152;19.432;2022-11-15T09:54:49;101561.20;;;7.83;81.17
66742;BME280;53654;54.152;19.432;2022-11-15T09:57:31;101564.20;;;7.87;81.16
66742;BME280;53654;54.152;19.432;2022-11-15T10:05:23;101552.47;;;7.92;80.64
66742;BME280;53654;54.152;19.432;2022-11-15T10:10:42;101552.16;;;7.95;80.26
66742;BME280;53654;54.152;19.432;2022-11-15T10:13:31;101544.91;;;7.97;80.26
66742;BME280;53654;54.152;19.432;2022-11-15T10:18:56;101542.58;;;7.92;80.21
66742;BME280;53654;54.152;19.432;2022-11-15T10:22:13;101539.85;;;7.96;80.26
66742;BME280;53654;54.152;19.432;2022-11-15T10:24:45;101537.66;;;7.89;79.75
66742;BME280;53654;54.152;19.432;2022-11-15T10:27:15;101538.36;;;7.90;79.69
66742;BME280;53654;54.152;19.432;2022-11-15T10:29:46;101535.92;;;7.88;79.52
66742;BME280;53654;54.152;19.432;2022-11-15T10:32:18;101543.91;;;7.89;79.39
66742;BME280;53654;54.152;19.432;2022-11-15T10:34:48;101540.45;;;7.90;79.52
66742;BME280;53654;54.152;19.432;2022-11-15T10:37:28;101541.65;;;7.89;79.46
66742;BME280;53654;54.152;19.432;2022-11-15T10:40:15;101544.20;;;7.85;79.64
66742;BME280;53654;54.152;19.432;2022-11-15T10:42:44;101549.70;;;7.81;79.67
66742;BME280;53654;54.152;19.432;2022-11-15T10:45:30;101544.85;;;7.82;79.91
66742;BME280;53654;54.152;19.432;2022-11-15T10:50:44;101539.33;;;7.85;80.29
66742;BME280;53654;54.152;19.432;2022-11-15T10:53:39;101539.55;;;7.87;80.33
66742;BME280;53654;54.152;19.432;2022-11-15T10:56:07;101535.40;;;7.89;80.46
66742;BME280;53654;54.152;19.432;2022-11-15T10:58:45;101530.40;;;7.91;80.44
66742;BME280;53654;54.152;19.432;2022-11-15T11:01:19;101526.05;;;7.92;80.12
66742;BME280;53654;54.152;19.432;2022-11-15T11:04:09;101523.65;;;7.93;79.83
66742;BME280;53654;54.152;19.432;2022-11-15T11:06:48;101525.72;;;7.92;79.73
66742;BME280;53654;54.152;19.432;2022-11-15T11:09:37;101526.75;;;7.91;79.89
66742;BME280;53654;54.152;19.432;2022-11-15T11:12:10;101522.92;;;7.91;80.10
66742;BME280;53654;54.152;19.432;2022-11-15T11:14:39;101520.55;;;7.94;79.83
66742;BME280;53654;54.152;19.432;2022-11-15T11:17:36;101519.17;;;7.96;79.67
66742;BME280;53654;54.152;19.432;2022-11-15T11:36:44;101507.41;;;8.00;79.37
66742;BME280;53654;54.152;19.432;2022-11-15T11:39:30;101505.69;;;8.01;79.50
66742;BME280;53654;54.152;19.432;2022-11-15T11:47:40;101497.98;;;8.09;79.15
66742;BME280;53654;54.152;19.432;2022-11-15T11:55:34;101488.06;;;8.08;78.89
66742;BME280;53654;54.152;19.432;2022-11-15T12:03:45;101488.23;;;8.07;79.23
66742;BME280;53654;54.152;19.432;2022-11-15T12:09:35;101484.28;;;8.11;78.98
66742;BME280;53654;54.152;19.432;2022-11-15T12:12:13;101485.89;;;8.15;78.91
66742;BME280;53654;54.152;19.432;2022-11-15T12:17:23;101483.98;;;8.15;78.63
66742;BME280;53654;54.152;19.432;2022-11-15T12:19:56;101479.64;;;8.16;78.63
66742;BME280;53654;54.152;19.432;2022-11-15T12:22:49;101474.27;;;8.17;78.86
66742;BME280;53654;54.152;19.432;2022-11-15T12:25:25;101470.25;;;8.15;78.95
66742;BME280;53654;54.152;19.432;2022-11-15T12:30:44;101469.92;;;8.16;79.68
66742;BME280;53654;54.152;19.432;2022-11-15T12:36:00;101464.67;;;8.14;79.84
66742;BME280;53654;54.152;19.432;2022-11-15T12:39:06;101463.85;;;8.17;80.08
66742;BME280;53654;54.152;19.432;2022-11-15T12:41:37;101469.27;;;8.19;80.34
66742;BME280;53654;54.152;19.432;2022-11-15T12:47:21;101465.29;;;8.21;79.70
66742;BME280;53654;54.152;19.432;2022-11-15T12:49:50;101465.98;;;8.20;79.90
66742;BME280;53654;54.152;19.432;2022-11-15T12:52:19;101460.98;;;8.23;80.20
66742;BME280;53654;54.152;19.432;2022-11-15T12:54:56;101458.73;;;8.25;80.09
66742;BME280;53654;54.152;19.432;2022-11-15T12:59:56;101452.64;;;8.24;79.34
66742;BME280;53654;54.152;19.432;2022-11-15T13:02:37;101456.41;;;8.20;79.47
66742;BME280;53654;54.152;19.432;2022-11-15T13:17:46;101464.91;;;8.18;78.97
66742;BME280;53654;54.152;19.432;2022-11-15T13:33:35;101457.05;;;8.28;78.70
66742;BME280;53654;54.152;19.432;2022-11-15T13:36:15;101453.39;;;8.28;78.67
66742;BME280;53654;54.152;19.432;2022-11-15T13:38:55;101440.66;;;8.26;78.76
66742;BME280;53654;54.152;19.432;2022-11-15T13:41:27;101432.30;;;8.24;78.65
66742;BME280;53654;54.152;19.432;2022-11-15T13:43:57;101431.42;;;8.23;78.39
66742;BME280;53654;54.152;19.432;2022-11-15T13:46:32;101429.67;;;8.23;78.74
66742;BME280;53654;54.152;19.432;2022-11-15T13:49:03;101430.01;;;8.21;78.79
66742;BME280;53654;54.152;19.432;2022-11-15T13:51:49;101432.09;;;8.21;78.78
66742;BME280;53654;54.152;19.432;2022-11-15T13:54:29;101437.45;;;8.18;78.43
66742;BME280;53654;54.152;19.432;2022-11-15T13:57:19;101432.55;;;8.16;78.51
66742;BME280;53654;54.152;19.432;2022-11-15T13:59:52;101441.92;;;8.15;78.51
66742;BME280;53654;54.152;19.432;2022-11-15T14:02:30;101439.50;;;8.16;78.36
66742;BME280;53654;54.152;19.432;2022-11-15T14:05:05;101435.13;;;8.14;78.49
66742;BME280;53654;54.152;19.432;2022-11-15T14:07:53;101430.44;;;8.14;78.49
66742;BME280;53654;54.152;19.432;2022-11-15T14:12:53;101428.47;;;8.09;78.50
66742;BME280;53654;54.152;19.432;2022-11-15T14:15:32;101421.16;;;8.09;78.60
66742;BME280;53654;54.152;19.432;2022-11-15T14:18:01;101417.70;;;8.09;78.71
66742;BME280;53654;54.152;19.432;2022-11-15T14:20:35;101419.06;;;8.07;78.71
66742;BME280;53654;54.152;19.432;2022-11-15T14:23:23;101410.89;;;8.06;78.77
66742;BME280;53654;54.152;19.432;2022-11-15T14:25:56;101400.76;;;8.02;78.91
66742;BME280;53654;54.152;19.432;2022-11-15T14:30:55;101403.76;;;8.06;78.95
66742;BME280;53654;54.152;19.432;2022-11-15T14:33:30;101399.45;;;8.09;78.66
66742;BME280;53654;54.152;19.432;2022-11-15T14:36:15;101396.00;;;8.11;78.56
66742;BME280;53654;54.152;19.432;2022-11-15T14:38:44;101398.45;;;8.12;78.37
66742;BME280;53654;54.152;19.432;2022-11-15T14:41:23;101395.88;;;8.15;78.18
66742;BME280;53654;54.152;19.432;2022-11-15T14:43:52;101397.11;;;8.17;77.97
66742;BME280;53654;54.152;19.432;2022-11-15T14:46:20;101396.95;;;8.18;78.01
66742;BME280;53654;54.152;19.432;2022-11-15T14:48:48;101400.62;;;8.19;77.65
66742;BME280;53654;54.152;19.432;2022-11-15T14:51:17;101401.33;;;8.21;77.60
66742;BME280;53654;54.152;19.432;2022-11-15T14:53:46;101398.73;;;8.23;77.40
66742;BME280;53654;54.152;19.432;2022-11-15T14:56:15;101397.19;;;8.24;77.15
66742;BME280;53654;54.152;19.432;2022-11-15T14:58:44;101400.33;;;8.24;77.20
66742;BME280;53654;54.152;19.432;2022-11-15T15:01:24;101403.45;;;8.25;76.94
66742;BME280;53654;54.152;19.432;2022-11-15T15:03:53;101402.93;;;8.24;76.80
66742;BME280;53654;54.152;19.432;2022-11-15T15:06:25;101403.64;;;8.25;76.68
66742;BME280;53654;54.152;19.432;2022-11-15T15:08:53;101404.01;;;8.27;76.90
66742;BME280;53654;54.152;19.432;2022-11-15T15:11:24;101401.75;;;8.28;76.93
66742;BME280;53654;54.152;19.432;2022-11-15T15:13:54;101400.87;;;8.27;76.76
66742;BME280;53654;54.152;19.432;2022-11-15T15:16:24;101396.32;;;8.24;77.05
66742;BME280;53654;54.152;19.432;2022-11-15T15:18:52;101394.05;;;8.24;77.08
66742;BME280;53654;54.152;19.432;2022-11-15T15:21:26;101387.11;;;8.24;76.90
66742;BME280;53654;54.152;19.432;2022-11-15T15:24:04;101385.17;;;8.22;77.11
66742;BME280;53654;54.152;19.432;2022-11-15T15:26:32;101390.20;;;8.21;77.26
66742;BME280;53654;54.152;19.432;2022-11-15T15:29:04;101391.41;;;8.20;77.57
66742;BME280;53654;54.152;19.432;2022-11-15T15:31:32;101394.02;;;8.20;77.70
66742;BME280;53654;54.152;19.432;2022-11-15T15:34:01;101392.29;;;8.21;77.70
66742;BME280;53654;54.152;19.432;2022-11-15T15:36:29;101392.13;;;8.23;77.41
66742;BME280;53654;54.152;19.432;2022-11-15T15:38:57;101385.50;;;8.20;77.45
66742;BME280;53654;54.152;19.432;2022-11-15T15:41:25;101386.55;;;8.22;77.28
66742;BME280;53654;54.152;19.432;2022-11-15T15:43:53;101388.27;;;8.19;77.13
66742;BME280;53654;54.152;19.432;2022-11-15T15:46:22;101382.36;;;8.18;77.18
66742;BME280;53654;54.152;19.432;2022-11-15T15:48:50;101377.98;;;8.17;77.22
66742;BME280;53654;54.152;19.432;2022-11-15T15:51:18;101374.85;;;8.16;77.26
66742;BME280;53654;54.152;19.432;2022-11-15T15:53:48;101376.05;;;8.15;77.29
66742;BME280;53654;54.152;19.432;2022-11-15T15:56:16;101378.48;;;8.14;77.30
66742;BME280;53654;54.152;19.432;2022-11-15T15:58:44;101377.77;;;8.13;77.55
66742;BME280;53654;54.152;19.432;2022-11-15T16:01:12;101377.40;;;8.12;77.70
66742;BME280;53654;54.152;19.432;2022-11-15T16:03:40;101379.48;;;8.11;77.81
66742;BME280;53654;54.152;19.432;2022-11-15T16:06:44;101377.92;;;8.11;77.74
66742;BME280;53654;54.152;19.432;2022-11-15T16:09:15;101381.16;;;8.05;77.87
66742;BME280;53654;54.152;19.432;2022-11-15T16:11:46;101386.92;;;8.07;77.81
66742;BME280;53654;54.152;19.432;2022-11-15T16:14:14;101387.98;;;8.08;77.77
66742;BME280;53654;54.152;19.432;2022-11-15T16:16:42;101399.80;;;8.10;77.89
66742;BME280;53654;54.152;19.432;2022-11-15T16:19:10;101397.23;;;8.13;77.96
66742;BME280;53654;54.152;19.432;2022-11-15T16:21:39;101397.27;;;8.16;77.88